Time;durP1;ratioP1;P1;durP2;ratioP2;P2;SDS_P1;SDS_P2;PMS_P1;PMS_P2;Temp;Humidity;BMP_temperature;BMP_pressure;BME280_temperature;BME280_humidity;BME280_pressure;Samples;Min_cycle;Max_cycle;Signal;HPM_P1;HPM_P2
2023/09/22 00:00:00;;;;;;;13.93;9.63;;;15.60;99.90;;;;;;6159704;23;20088;-76
2023/09/22 00:02:26;;;;;;;12.13;9.30;;;15.70;99.90;;;;;;6161417;23;20029;-75
2023/09/22 00:04:52;;;;;;;16.08;9.35;;;15.60;99.90;;;;;;6134854;23;20040;-77
2023/09/22 00:07:18;;;;;;;15.50;9.48;;;15.60;99.90;;;;;;6158560;23;20036;-78
2023/09/22 00:09:44;;;;;;;12.90;9.43;;;15.60;99.90;;;;;;6161828;23;20061;-76
2023/09/22 00:12:09;;;;;;;14.15;8.55;;;15.70;99.90;;;;;;6157878;23;20022;-76
2023/09/22 00:14:36;;;;;;;14.70;10.07;;;15.60;99.90;;;;;;6159977;23;20091;-75
2023/09/22 00:17:03;;;;;;;12.45;9.07;;;15.70;99.90;;;;;;6158256;23;20037;-75
2023/09/22 00:19:28;;;;;;;13.30;9.63;;;15.70;99.90;;;;;;6161230;23;20035;-76
2023/09/22 00:21:57;;;;;;;14.02;9.77;;;15.70;99.90;;;;;;6160458;23;20018;-74
2023/09/22 00:24:22;;;;;;;13.90;9.25;;;15.60;99.90;;;;;;6159617;23;20029;-78
2023/09/22 00:26:48;;;;;;;11.75;8.60;;;15.70;99.90;;;;;;6161381;23;20025;-76
2023/09/22 00:29:14;;;;;;;12.07;8.57;;;15.60;99.90;;;;;;6132535;23;20073;-75
2023/09/22 00:31:40;;;;;;;14.63;8.73;;;15.70;99.90;;;;;;6159541;23;20025;-75
2023/09/22 00:34:06;;;;;;;11.93;8.88;;;15.70;99.90;;;;;;6157514;23;20036;-74
2023/09/22 00:36:33;;;;;;;10.00;7.93;;;15.70;99.90;;;;;;6160324;23;20029;-75
2023/09/22 00:38:59;;;;;;;10.02;7.90;;;15.70;99.90;;;;;;6160120;23;20069;-74
2023/09/22 00:41:25;;;;;;;11.43;8.75;;;15.60;99.90;;;;;;6157766;23;20473;-75
2023/09/22 00:43:50;;;;;;;12.63;7.93;;;15.70;99.90;;;;;;6159403;23;20022;-74
2023/09/22 00:46:23;;;;;;;11.25;8.20;;;15.60;99.90;;;;;;6157180;23;20032;-76
2023/09/22 00:48:50;;;;;;;14.98;9.20;;;15.60;99.90;;;;;;6160494;23;20032;-76
2023/09/22 00:51:19;;;;;;;11.02;8.48;;;15.60;99.90;;;;;;6107686;23;20105;-74
2023/09/22 00:53:47;;;;;;;12.98;7.93;;;15.60;99.90;;;;;;6158690;23;20025;-74
2023/09/22 00:56:15;;;;;;;12.10;8.13;;;15.50;99.90;;;;;;6158492;23;20068;-74
2023/09/22 00:58:41;;;;;;;11.02;7.63;;;15.60;99.90;;;;;;6157956;23;20032;-75
2023/09/22 01:01:08;;;;;;;9.40;7.15;;;15.50;99.90;;;;;;6159273;23;20037;-74
2023/09/22 01:03:34;;;;;;;10.68;8.38;;;15.50;99.90;;;;;;6132370;23;20052;-75
2023/09/22 01:05:59;;;;;;;13.13;9.13;;;15.50;99.90;;;;;;6159114;23;20029;-75
2023/09/22 01:08:25;;;;;;;10.65;8.18;;;15.50;99.90;;;;;;6157442;23;20025;-75
2023/09/22 01:10:51;;;;;;;9.77;8.05;;;15.60;99.90;;;;;;6158672;23;20057;-75
2023/09/22 01:13:17;;;;;;;9.93;7.90;;;15.60;99.90;;;;;;6158162;23;20076;-74
2023/09/22 01:15:43;;;;;;;10.40;7.95;;;15.60;99.90;;;;;;6198047;23;20028;-75
2023/09/22 01:18:10;;;;;;;11.48;8.13;;;15.60;99.90;;;;;;6189143;23;20029;-74
2023/09/22 01:20:43;;;;;;;11.60;8.32;;;15.60;99.90;;;;;;6190424;23;20395;-73
2023/09/22 01:23:13;;;;;;;10.32;7.65;;;15.60;99.90;;;;;;6192990;23;20032;-74
2023/09/22 01:25:42;;;;;;;9.35;7.57;;;15.60;99.90;;;;;;6191858;23;20036;-74
2023/09/22 01:28:10;;;;;;;8.90;7.65;;;15.60;99.90;;;;;;6190852;23;20029;-75
2023/09/22 01:30:36;;;;;;;11.00;7.88;;;15.60;99.90;;;;;;6192790;23;20032;-75
2023/09/22 01:33:03;;;;;;;12.18;8.57;;;15.60;99.90;;;;;;6190258;23;20032;-75
2023/09/22 01:35:33;;;;;;;11.32;8.13;;;15.60;99.90;;;;;;6192389;23;20025;-74
2023/09/22 01:38:14;;;;;;;12.45;9.38;;;15.50;99.90;;;;;;6188947;23;20398;-75
2023/09/22 01:40:43;;;;;;;13.27;8.77;;;15.60;99.90;;;;;;6190159;23;20029;-76
2023/09/22 01:43:09;;;;;;;10.60;8.43;;;15.50;99.90;;;;;;6192554;23;20025;-74
2023/09/22 01:45:35;;;;;;;15.35;9.32;;;15.60;99.90;;;;;;6190718;23;20021;-74
2023/09/22 01:48:01;;;;;;;11.52;8.65;;;15.60;99.90;;;;;;6192619;23;20029;-75
2023/09/22 01:50:27;;;;;;;12.93;9.38;;;15.60;99.90;;;;;;6190605;23;20021;-73
2023/09/22 01:52:52;;;;;;;12.68;9.07;;;15.60;99.90;;;;;;6193002;23;20029;-75
2023/09/22 01:55:22;;;;;;;14.07;9.63;;;15.60;99.90;;;;;;6189614;23;20059;-75
2023/09/22 01:57:49;;;;;;;14.82;9.43;;;15.60;99.90;;;;;;6192326;23;20028;-75
2023/09/22 02:00:16;;;;;;;16.25;10.70;;;15.60;99.90;;;;;;6192836;23;20072;-73
2023/09/22 02:02:43;;;;;;;15.13;9.27;;;15.60;99.90;;;;;;6190823;23;20017;-73
2023/09/22 02:05:12;;;;;;;14.18;9.63;;;15.60;99.90;;;;;;6192467;23;20024;-74
2023/09/22 02:07:38;;;;;;;12.50;9.63;;;15.50;99.90;;;;;;6189107;23;20080;-75
2023/09/22 02:10:05;;;;;;;13.63;9.20;;;15.50;99.90;;;;;;6192452;23;20068;-75
2023/09/22 02:12:31;;;;;;;18.02;13.20;;;15.50;99.90;;;;;;6163473;23;20409;-73
2023/09/22 02:14:57;;;;;;;16.42;10.82;;;15.60;99.90;;;;;;6190650;23;20017;-75
2023/09/22 02:17:23;;;;;;;13.90;10.15;;;15.70;99.90;;;;;;6190977;23;20033;-75
2023/09/22 02:19:48;;;;;;;15.98;10.80;;;15.60;99.90;;;;;;6188719;23;20024;-74
2023/09/22 02:22:14;;;;;;;14.20;9.73;;;15.60;99.90;;;;;;6193011;23;20069;-73
2023/09/22 02:24:40;;;;;;;14.93;10.32;;;15.60;99.90;;;;;;6188675;23;20096;-75
2023/09/22 02:27:06;;;;;;;16.05;11.40;;;15.50;99.90;;;;;;6192638;23;20029;-75
2023/09/22 02:29:32;;;;;;;15.30;11.13;;;15.50;99.90;;;;;;6191157;23;20035;-75
2023/09/22 02:31:58;;;;;;;19.23;11.00;;;15.50;99.90;;;;;;6190266;23;20028;-75
2023/09/22 02:34:24;;;;;;;14.45;10.00;;;15.50;99.90;;;;;;6191984;23;20025;-74
2023/09/22 02:36:50;;;;;;;16.23;10.30;;;15.50;99.90;;;;;;6188862;23;20040;-73
2023/09/22 02:39:16;;;;;;;16.95;11.15;;;15.50;99.90;;;;;;6192528;23;20026;-73
2023/09/22 02:41:42;;;;;;;17.60;11.48;;;15.50;99.90;;;;;;6190443;23;20032;-74
2023/09/22 02:44:09;;;;;;;15.52;10.48;;;15.40;99.90;;;;;;6190686;23;20029;-75
2023/09/22 02:46:35;;;;;;;14.55;10.02;;;15.50;99.90;;;;;;6188752;23;20879;-73
2023/09/22 02:49:01;;;;;;;15.88;10.98;;;15.50;99.90;;;;;;6191940;23;20538;-72
2023/09/22 02:51:27;;;;;;;15.07;10.52;;;15.40;99.90;;;;;;6192336;23;20025;-74
2023/09/22 02:53:55;;;;;;;15.20;10.68;;;15.40;99.90;;;;;;6192560;23;20025;-73
2023/09/22 02:56:21;;;;;;;20.33;11.50;;;15.40;99.90;;;;;;6191971;23;20137;-73
2023/09/22 02:58:48;;;;;;;19.00;11.77;;;15.40;99.90;;;;;;6192390;23;20017;-74
2023/09/22 03:01:14;;;;;;;14.13;10.27;;;15.40;99.90;;;;;;6194172;23;20026;-75
2023/09/22 03:03:42;;;;;;;18.48;10.93;;;15.40;99.90;;;;;;6190768;23;20056;-73
2023/09/22 03:06:12;;;;;;;15.77;11.18;;;15.40;99.90;;;;;;6193617;23;20027;-75
2023/09/22 03:08:38;;;;;;;15.77;11.20;;;15.40;99.90;;;;;;6193893;23;20040;-74
2023/09/22 03:11:05;;;;;;;19.13;11.07;;;15.40;99.90;;;;;;6192624;23;20017;-74
2023/09/22 03:13:31;;;;;;;15.02;10.50;;;15.30;99.90;;;;;;6192584;23;20039;-73
2023/09/22 03:15:57;;;;;;;14.63;10.98;;;15.30;99.90;;;;;;6189990;23;20076;-74
2023/09/22 03:18:24;;;;;;;14.75;10.70;;;15.30;99.90;;;;;;6193608;23;20450;-74
2023/09/22 03:20:50;;;;;;;15.13;10.15;;;15.30;99.90;;;;;;6190306;23;20021;-73
2023/09/22 03:23:16;;;;;;;15.20;9.05;;;15.30;99.90;;;;;;6193292;23;20392;-74
2023/09/22 03:25:47;;;;;;;14.50;8.38;;;15.30;99.90;;;;;;6193702;23;20087;-74
2023/09/22 03:28:13;;;;;;;12.70;8.65;;;15.20;99.90;;;;;;6192104;23;20035;-73
2023/09/22 03:30:40;;;;;;;13.05;8.10;;;15.20;99.90;;;;;;6193875;23;20092;-75
2023/09/22 03:33:05;;;;;;;11.13;7.68;;;15.20;99.90;;;;;;6192182;23;20083;-73
2023/09/22 03:35:31;;;;;;;12.43;7.63;;;15.20;99.90;;;;;;6192242;23;20033;-75
2023/09/22 03:37:58;;;;;;;12.15;7.97;;;15.20;99.90;;;;;;6192305;23;20047;-74
2023/09/22 03:40:33;;;;;;;12.23;7.95;;;15.20;99.90;;;;;;6192117;23;20017;-74
2023/09/22 03:43:00;;;;;;;14.57;8.55;;;15.20;99.90;;;;;;6194000;23;20013;-72
2023/09/22 03:45:26;;;;;;;15.65;8.80;;;15.20;99.90;;;;;;6190171;23;20437;-73
2023/09/22 03:47:51;;;;;;;10.60;7.63;;;15.20;99.90;;;;;;6191673;23;20025;-73
2023/09/22 03:50:17;;;;;;;11.02;8.00;;;15.30;99.90;;;;;;6191989;23;20052;-75
2023/09/22 03:52:43;;;;;;;12.27;8.23;;;15.20;99.90;;;;;;6167627;23;20021;-75
2023/09/22 03:55:11;;;;;;;13.25;9.02;;;15.20;99.90;;;;;;6192388;23;20044;-74
2023/09/22 03:57:38;;;;;;;13.43;9.23;;;15.20;99.90;;;;;;6193421;23;20032;-74
2023/09/22 04:00:07;;;;;;;17.50;9.63;;;15.20;99.90;;;;;;6193351;23;20021;-75
2023/09/22 04:02:33;;;;;;;18.33;11.38;;;15.10;99.90;;;;;;6192272;23;20056;-74
2023/09/22 04:04:59;;;;;;;20.65;12.13;;;15.10;99.90;;;;;;6194123;23;20032;-76
2023/09/22 04:07:24;;;;;;;16.77;11.75;;;15.20;99.90;;;;;;6191676;23;20052;-75
2023/09/22 04:09:50;;;;;;;20.45;11.95;;;15.10;99.90;;;;;;6194305;23;20347;-74
2023/09/22 04:12:16;;;;;;;21.00;12.80;;;15.10;99.90;;;;;;6192485;23;20076;-74
2023/09/22 04:14:42;;;;;;;18.33;11.50;;;15.10;99.90;;;;;;6193590;23;20056;-74
2023/09/22 04:17:08;;;;;;;20.73;12.38;;;15.00;99.90;;;;;;6193354;23;20492;-74
2023/09/22 04:19:33;;;;;;;20.67;12.93;;;15.10;99.90;;;;;;6192447;23;20020;-73
2023/09/22 04:22:00;;;;;;;;;;;15.00;99.90;;;;;;6192832;23;20083;-73
2023/09/22 04:24:31;;;;;;;24.45;12.98;;;15.00;99.90;;;;;;6189737;23;19967;-73
2023/09/22 04:27:01;;;;;;;27.23;13.18;;;14.90;99.90;;;;;;6193978;23;20017;-75
2023/09/22 04:29:27;;;;;;;19.55;12.82;;;14.90;99.90;;;;;;6190058;23;20740;-73
2023/09/22 04:31:52;;;;;;;23.33;13.57;;;14.90;99.90;;;;;;6193620;23;20073;-73
2023/09/22 04:34:22;;;;;;;22.63;14.20;;;14.90;99.90;;;;;;6191784;23;20021;-74
2023/09/22 04:36:47;;;;;;;24.33;14.48;;;14.80;99.90;;;;;;6190261;23;20029;-73
2023/09/22 04:39:14;;;;;;;22.38;14.73;;;14.80;99.90;;;;;;6192568;23;20029;-74
2023/09/22 04:41:40;;;;;;;28.85;15.15;;;14.80;99.90;;;;;;6191960;23;20133;-74
2023/09/22 04:44:06;;;;;;;27.45;19.08;;;14.80;99.90;;;;;;6192118;23;20370;-73
2023/09/22 04:46:33;;;;;;;26.60;15.93;;;14.90;99.90;;;;;;6189546;23;20025;-73
2023/09/22 04:48:59;;;;;;;25.70;15.32;;;14.80;99.90;;;;;;6190387;23;20025;-72
2023/09/22 04:51:27;;;;;;;21.15;14.60;;;14.80;99.90;;;;;;6192687;23;20056;-75
2023/09/22 04:53:53;;;;;;;26.33;14.80;;;14.70;99.90;;;;;;6191788;23;20029;-74
2023/09/22 04:56:21;;;;;;;22.00;14.25;;;14.60;99.90;;;;;;6193094;23;20021;-72
2023/09/22 04:58:47;;;;;;;24.38;15.73;;;14.60;99.90;;;;;;6190950;23;20021;-73
2023/09/22 05:01:14;;;;;;;23.30;15.15;;;14.60;99.90;;;;;;6193596;23;20076;-72
2023/09/22 05:03:40;;;;;;;23.38;15.57;;;14.60;99.90;;;;;;6190014;23;20029;-75
2023/09/22 05:06:09;;;;;;;24.45;15.40;;;14.60;99.90;;;;;;6192750;23;20077;-73
2023/09/22 05:08:37;;;;;;;27.08;16.70;;;14.60;99.90;;;;;;6191022;23;20028;-73
2023/09/22 05:11:05;;;;;;;23.50;15.48;;;14.50;99.90;;;;;;6190915;23;20419;-75
2023/09/22 05:13:32;;;;;;;26.02;16.92;;;14.40;99.90;;;;;;6193079;23;20021;-72
2023/09/22 05:16:14;;;;;;;25.83;15.13;;;14.50;99.90;;;;;;6190840;23;20550;-75
2023/09/22 05:18:40;;;;;;;31.80;17.08;;;14.50;99.90;;;;;;6192644;23;20033;-73
2023/09/22 05:21:09;;;;;;;26.58;16.30;;;14.40;99.90;;;;;;6191814;23;20048;-73
2023/09/22 05:23:35;;;;;;;27.08;17.10;;;14.50;99.90;;;;;;6189725;23;20489;-73
2023/09/22 05:26:08;;;;;;;26.50;16.38;;;14.30;99.90;;;;;;6191027;23;20021;-72
2023/09/22 05:28:34;;;;;;;28.02;16.67;;;14.30;99.90;;;;;;6190391;23;20029;-73
2023/09/22 05:31:00;;;;;;;27.83;17.02;;;14.20;99.90;;;;;;6192958;23;20025;-73
2023/09/22 05:33:28;;;;;;;29.83;16.95;;;14.30;99.90;;;;;;6190590;23;20027;-72
2023/09/22 05:35:54;;;;;;;25.92;15.60;;;14.20;99.90;;;;;;6192873;23;20025;-72
2023/09/22 05:38:20;;;;;;;25.38;15.40;;;14.30;99.90;;;;;;6191965;23;20091;-73
2023/09/22 05:40:46;;;;;;;26.92;15.70;;;14.20;99.90;;;;;;6191202;23;20080;-72
2023/09/22 05:43:12;;;;;;;25.70;15.48;;;14.20;99.90;;;;;;6193015;23;20036;-74
2023/09/22 05:45:38;;;;;;;26.73;14.93;;;14.20;99.90;;;;;;6190442;23;20029;-74
2023/09/22 05:48:04;;;;;;;25.27;14.90;;;14.20;99.90;;;;;;6190011;23;20547;-74
2023/09/22 05:50:30;;;;;;;23.58;13.90;;;14.20;99.90;;;;;;6190792;23;20043;-73
2023/09/22 05:52:56;;;;;;;23.23;12.50;;;14.20;99.90;;;;;;6192266;23;20028;-71
2023/09/22 05:55:22;;;;;;;20.83;12.57;;;14.20;99.90;;;;;;6191295;23;20055;-70
2023/09/22 05:57:50;;;;;;;22.15;12.70;;;14.30;99.90;;;;;;6191461;23;20437;-71
2023/09/22 06:00:16;;;;;;;24.20;12.80;;;14.30;99.90;;;;;;6193012;23;20065;-71
2023/09/22 06:02:49;;;;;;;19.77;11.15;;;14.30;99.90;;;;;;6189182;23;20032;-71
2023/09/22 06:05:27;;;;;;;22.48;11.45;;;14.20;99.90;;;;;;6190963;23;20028;-73
2023/09/22 06:07:54;;;;;;;17.30;10.93;;;14.30;99.90;;;;;;6188544;23;20028;-74
2023/09/22 06:10:20;;;;;;;21.15;11.13;;;14.20;99.90;;;;;;6164712;23;20501;-72
2023/09/22 06:12:46;;;;;;;18.75;10.90;;;14.20;99.90;;;;;;6189980;23;20021;-73
2023/09/22 06:15:15;;;;;;;19.13;10.85;;;14.20;99.90;;;;;;6190503;23;20025;-72
2023/09/22 06:17:42;;;;;;;19.30;10.40;;;14.10;99.90;;;;;;6165703;23;20021;-72
2023/09/22 06:20:13;;;;;;;20.55;11.32;;;14.10;99.90;;;;;;6188847;23;20029;-73
2023/09/22 06:22:41;;;;;;;17.02;10.50;;;14.20;99.90;;;;;;6191267;23;20021;-74
2023/09/22 06:25:08;;;;;;;20.38;10.38;;;14.20;99.90;;;;;;6187082;23;20025;-74
2023/09/22 06:27:33;;;;;;;21.75;11.23;;;14.10;99.90;;;;;;6189218;23;20088;-74
2023/09/22 06:30:00;;;;;;;17.20;10.38;;;14.20;99.90;;;;;;6164024;23;20080;-75
2023/09/22 06:32:27;;;;;;;16.13;9.82;;;14.20;99.90;;;;;;6138554;23;20059;-74
2023/09/22 06:34:53;;;;;;;17.85;9.38;;;14.20;99.90;;;;;;6188819;23;20071;-73
2023/09/22 06:37:20;;;;;;;19.55;9.65;;;14.20;99.90;;;;;;6188445;23;20017;-74
2023/09/22 06:39:46;;;;;;;23.45;9.57;;;14.30;99.90;;;;;;6189516;23;20025;-73
2023/09/22 06:42:12;;;;;;;17.48;8.80;;;14.20;99.90;;;;;;6189469;23;20028;-73
2023/09/22 06:44:38;;;;;;;16.10;9.77;;;14.20;99.90;;;;;;6164723;23;20379;-72
2023/09/22 06:47:05;;;;;;;19.50;10.20;;;14.30;99.90;;;;;;6190606;23;20059;-72
2023/09/22 06:49:33;;;;;;;15.77;8.52;;;14.30;99.90;;;;;;6187937;23;20032;-72
2023/09/22 06:51:59;;;;;;;16.88;8.90;;;14.30;99.90;;;;;;6189298;23;20503;-70
2023/09/22 06:54:26;;;;;;;15.50;9.18;;;14.40;99.90;;;;;;6188270;23;20378;-73
2023/09/22 06:56:52;;;;;;;13.98;8.65;;;14.40;99.90;;;;;;6188789;23;20021;-70
2023/09/22 06:59:22;;;;;;;14.15;7.78;;;14.40;99.90;;;;;;6188635;23;20056;-74
2023/09/22 07:01:48;;;;;;;13.63;8.13;;;14.40;99.90;;;;;;6188985;23;20025;-71
2023/09/22 07:04:14;;;;;;;13.93;8.30;;;14.40;99.90;;;;;;6163921;23;20021;-72
2023/09/22 07:06:41;;;;;;;17.33;8.13;;;14.40;99.90;;;;;;6189249;23;20060;-72
2023/09/22 07:09:11;;;;;;;15.82;8.27;;;14.50;99.90;;;;;;6189127;23;20025;-73
2023/09/22 07:11:40;;;;;;;14.45;8.05;;;14.60;99.90;;;;;;6185868;23;20025;-73
2023/09/22 07:14:09;;;;;;;15.48;8.35;;;14.50;99.90;;;;;;6190540;23;20098;-67
2023/09/22 07:16:36;;;;;;;14.98;7.80;;;14.60;99.90;;;;;;6188890;23;20025;-73
2023/09/22 07:19:02;;;;;;;15.68;8.02;;;14.60;99.90;;;;;;6187760;23;20079;-73
2023/09/22 07:21:28;;;;;;;12.65;8.48;;;14.60;99.90;;;;;;6163452;23;20025;-74
2023/09/22 07:23:55;;;;;;;13.93;7.72;;;14.60;99.90;;;;;;6188927;23;20021;-71
2023/09/22 07:26:22;;;;;;;16.65;7.85;;;14.60;99.90;;;;;;6190198;23;20060;-73
2023/09/22 07:28:48;;;;;;;12.38;6.72;;;14.70;99.90;;;;;;6186488;23;20017;-72
2023/09/22 07:31:18;;;;;;;11.90;7.03;;;14.70;99.90;;;;;;6188646;23;20029;-72
2023/09/22 07:33:44;;;;;;;19.15;8.63;;;14.70;99.90;;;;;;6188186;23;20381;-72
2023/09/22 07:36:10;;;;;;;14.98;7.75;;;14.80;99.90;;;;;;6191297;23;20025;-71
2023/09/22 07:38:36;;;;;;;11.90;7.30;;;14.70;99.90;;;;;;6189836;23;20013;-72
2023/09/22 07:41:02;;;;;;;15.98;7.72;;;14.70;99.90;;;;;;6190238;23;20092;-73
2023/09/22 07:43:30;;;;;;;11.75;6.72;;;14.80;99.90;;;;;;6189335;23;20063;-72
2023/09/22 07:45:57;;;;;;;13.65;7.15;;;14.80;99.90;;;;;;6190126;23;20021;-71
2023/09/22 07:48:24;;;;;;;15.50;8.02;;;14.90;99.90;;;;;;6190146;23;20060;-72
2023/09/22 07:50:51;;;;;;;14.82;7.47;;;14.80;99.90;;;;;;6187889;23;20072;-71
2023/09/22 07:53:18;;;;;;;15.95;7.03;;;14.80;99.90;;;;;;6165308;23;20037;-70
2023/09/22 07:55:45;;;;;;;12.10;7.05;;;14.80;99.90;;;;;;6191845;23;20024;-72
2023/09/22 07:58:11;;;;;;;14.02;7.22;;;14.90;99.90;;;;;;6188597;23;20029;-71
2023/09/22 08:00:42;;;;;;;11.27;6.68;;;14.80;99.90;;;;;;6165544;23;20059;-82
2023/09/22 08:03:09;;;;;;;9.15;6.10;;;14.90;99.90;;;;;;6190011;23;20106;-72
2023/09/22 08:05:35;;;;;;;11.27;5.90;;;14.90;99.90;;;;;;6192232;23;20353;-73
2023/09/22 08:08:02;;;;;;;11.88;4.63;;;14.90;99.90;;;;;;6188572;23;20080;-68
2023/09/22 08:10:29;;;;;;;9.77;4.72;;;15.00;99.90;;;;;;6191910;23;20073;-65
2023/09/22 08:12:55;;;;;;;13.27;4.72;;;15.10;99.90;;;;;;6165436;23;20064;-65
2023/09/22 08:15:21;;;;;;;6.38;4.15;;;15.10;99.90;;;;;;6163721;23;20060;-65
2023/09/22 08:17:49;;;;;;;6.72;4.22;;;15.10;99.90;;;;;;6191954;23;20025;-65
2023/09/22 08:20:16;;;;;;;9.63;4.55;;;15.30;99.90;;;;;;6189452;23;20438;-65
2023/09/22 08:22:47;;;;;;;9.25;4.55;;;15.30;99.90;;;;;;6190389;23;20169;-65
2023/09/22 08:25:13;;;;;;;7.07;4.30;;;15.30;99.90;;;;;;6188570;23;20029;-65
2023/09/22 08:27:38;;;;;;;8.50;3.95;;;15.30;99.90;;;;;;6189576;23;20024;-68
2023/09/22 08:30:11;;;;;;;10.38;3.83;;;15.30;99.90;;;;;;6189804;23;20068;-68
2023/09/22 08:32:39;;;;;;;3.83;3.25;;;15.30;99.90;;;;;;6186847;23;20029;-69
2023/09/22 08:35:07;;;;;;;6.07;3.50;;;15.40;99.90;;;;;;6189675;23;20565;-68
2023/09/22 08:37:33;;;;;;;5.22;3.67;;;15.50;99.90;;;;;;6162395;23;20025;-68
2023/09/22 08:40:00;;;;;;;6.57;3.80;;;15.50;99.90;;;;;;6190062;23;20052;-68
2023/09/22 08:42:27;;;;;;;6.57;3.33;;;15.60;99.90;;;;;;6189693;23;20055;-68
2023/09/22 08:44:54;;;;;;;6.35;3.17;;;15.60;99.90;;;;;;6189152;23;20029;-68
2023/09/22 08:47:22;;;;;;;4.03;2.50;;;15.70;99.90;;;;;;6189968;23;20111;-68
2023/09/22 08:49:47;;;;;;;6.75;2.10;;;15.80;99.90;;;;;;6188214;23;20063;-68
2023/09/22 08:52:13;;;;;;;6.07;2.53;;;15.90;99.90;;;;;;6192013;23;20021;-68
2023/09/22 08:54:39;;;;;;;3.53;2.05;;;15.80;99.90;;;;;;6189714;23;20434;-67
2023/09/22 08:57:05;;;;;;;4.75;1.98;;;15.90;99.90;;;;;;6189560;23;20032;-67
2023/09/22 08:59:31;;;;;;;3.70;2.25;;;15.90;99.90;;;;;;6189886;23;20394;-67
2023/09/22 09:01:58;;;;;;;4.10;2.08;;;16.00;99.90;;;;;;6189756;23;20029;-67
2023/09/22 09:04:33;;;;;;;4.22;1.73;;;16.10;99.90;;;;;;6191464;23;20076;-67
2023/09/22 09:06:59;;;;;;;3.85;1.83;;;16.10;99.90;;;;;;6188415;23;20085;-67
2023/09/22 09:09:25;;;;;;;3.28;1.70;;;16.10;99.90;;;;;;6189455;23;20100;-67
2023/09/22 09:12:05;;;;;;;4.20;1.90;;;16.00;99.90;;;;;;6187270;23;20024;-67
2023/09/22 09:14:31;;;;;;;2.30;1.70;;;16.00;99.90;;;;;;6189431;23;20032;-67
2023/09/22 09:16:57;;;;;;;2.97;1.52;;;15.90;99.90;;;;;;6190179;23;20025;-66
2023/09/22 09:19:24;;;;;;;3.58;1.90;;;16.00;99.90;;;;;;6190017;23;20132;-66
2023/09/22 09:22:05;;;;;;;4.72;1.83;;;16.00;99.90;;;;;;6189701;23;20138;-66
2023/09/22 09:24:33;;;;;;;3.42;1.77;;;16.20;99.90;;;;;;6187558;23;20060;-66
2023/09/22 09:26:58;;;;;;;2.50;1.58;;;16.20;99.90;;;;;;6191547;23;20095;-68
2023/09/22 09:29:28;;;;;;;2.40;1.50;;;16.20;99.90;;;;;;6188578;23;20446;-67
2023/09/22 09:31:55;;;;;;;5.57;1.90;;;16.10;99.90;;;;;;6164346;23;20035;-66
2023/09/22 09:34:36;;;;;;;5.88;1.52;;;16.20;99.90;;;;;;6189104;23;20029;-65
2023/09/22 09:37:15;;;;;;;7.25;1.60;;;16.20;99.90;;;;;;6187632;23;20025;-66
2023/09/22 09:39:49;;;;;;;4.30;1.40;;;16.10;99.90;;;;;;6190036;23;20048;-65
2023/09/22 09:42:18;;;;;;;1.92;1.42;;;16.20;99.90;;;;;;6188042;23;20070;-65
2023/09/22 09:44:52;;;;;;;9.38;2.15;;;16.20;99.90;;;;;;6191442;23;20472;-65
2023/09/22 09:47:22;;;;;;;2.78;1.17;;;16.20;99.90;;;;;;6164465;23;20033;-66
2023/09/22 09:49:52;;;;;;;1.98;1.33;;;16.40;99.90;;;;;;6187917;23;20054;-67
2023/09/22 09:52:24;;;;;;;3.78;1.75;;;16.40;99.90;;;;;;6189973;23;20514;-69
2023/09/22 09:55:04;;;;;;;4.18;1.10;;;16.40;99.90;;;;;;6189533;23;20032;-69
2023/09/22 09:57:31;;;;;;;12.55;1.70;;;16.40;99.90;;;;;;6190610;23;20108;-67
2023/09/22 09:59:57;;;;;;;3.33;0.98;;;16.30;99.90;;;;;;6165114;23;20029;-66
2023/09/22 10:02:26;;;;;;;2.35;0.95;;;16.30;99.90;;;;;;6189360;23;20025;-69
2023/09/22 10:04:54;;;;;;;4.32;1.10;;;16.30;99.90;;;;;;6190221;23;20443;-66
2023/09/22 10:07:20;;;;;;;1.55;0.90;;;16.30;99.90;;;;;;6187395;23;20029;-68
2023/09/22 10:09:46;;;;;;;2.92;1.55;;;16.40;99.90;;;;;;6191871;23;20032;-66
2023/09/22 10:12:13;;;;;;;2.95;1.13;;;16.50;99.90;;;;;;6163283;23;20103;-67
2023/09/22 10:14:43;;;;;;;3.50;0.85;;;16.50;99.90;;;;;;6189450;23;20028;-68
2023/09/22 10:17:28;;;;;;;1.67;1.00;;;16.50;99.90;;;;;;6115922;23;20037;-68
2023/09/22 10:19:56;;;;;;;2.55;1.10;;;16.60;99.90;;;;;;6163122;23;20095;-68
2023/09/22 10:22:21;;;;;;;2.72;0.80;;;16.50;99.90;;;;;;6191973;23;20022;-67
2023/09/22 10:25:10;;;;;;;1.50;0.80;;;16.60;99.90;;;;;;6188904;23;20094;-68
2023/09/22 10:27:57;;;;;;;1.45;0.90;;;16.70;99.90;;;;;;6191115;23;20056;-67
2023/09/22 10:30:30;;;;;;;1.35;1.00;;;16.70;99.90;;;;;;6189904;23;20033;-67
2023/09/22 10:33:15;;;;;;;2.53;1.00;;;16.70;99.90;;;;;;6187534;23;20056;-67
2023/09/22 10:35:41;;;;;;;2.90;1.05;;;16.70;99.90;;;;;;6191792;23;20021;-68
2023/09/22 10:38:09;;;;;;;1.85;0.90;;;16.70;99.90;;;;;;6188049;23;20605;-68
2023/09/22 10:40:35;;;;;;;1.92;1.08;;;16.60;99.90;;;;;;6188844;23;20025;-68
2023/09/22 10:43:03;;;;;;;2.03;0.80;;;16.60;99.90;;;;;;6189718;23;20013;-68
2023/09/22 10:45:29;;;;;;;3.15;0.90;;;16.60;99.90;;;;;;6162289;23;20020;-68
2023/09/22 10:47:58;;;;;;;1.40;1.08;;;16.60;99.90;;;;;;6189476;23;20375;-68
2023/09/22 10:50:30;;;;;;;2.53;1.20;;;16.60;99.90;;;;;;6161833;23;20025;-68
2023/09/22 10:53:02;;;;;;;5.68;0.90;;;16.60;99.90;;;;;;6188666;23;20033;-68
2023/09/22 10:55:38;;;;;;;3.67;1.05;;;16.70;99.90;;;;;;6188008;23;20021;-69
2023/09/22 10:58:05;;;;;;;1.80;0.77;;;16.70;99.90;;;;;;6187223;23;20025;-68
2023/09/22 11:00:32;;;;;;;4.00;0.77;;;16.70;99.90;;;;;;6188590;23;20092;-68
2023/09/22 11:03:14;;;;;;;1.80;0.88;;;16.80;99.90;;;;;;6187910;23;20033;-68
2023/09/22 11:05:46;;;;;;;2.38;0.80;;;16.80;99.90;;;;;;6188928;23;20031;-68
2023/09/22 11:08:18;;;;;;;3.35;0.80;;;16.90;99.90;;;;;;6187735;23;20064;-68
2023/09/22 11:10:49;;;;;;;0.83;0.80;;;16.90;99.90;;;;;;6164724;23;20025;-68
2023/09/22 11:13:15;;;;;;;0.98;0.80;;;17.00;99.90;;;;;;6191362;23;20025;-68
2023/09/22 11:15:53;;;;;;;3.90;0.90;;;17.00;99.90;;;;;;6190127;23;20334;-68
2023/09/22 11:18:33;;;;;;;3.20;1.10;;;17.10;99.90;;;;;;6190332;23;20380;-68
2023/09/22 11:21:02;;;;;;;1.23;0.80;;;17.20;99.90;;;;;;6188738;23;20480;-68
2023/09/22 11:23:28;;;;;;;2.13;0.80;;;17.20;99.90;;;;;;6189984;23;20048;-68
2023/09/22 11:25:59;;;;;;;1.70;0.70;;;17.20;99.90;;;;;;6190449;23;20017;-68
2023/09/22 11:28:27;;;;;;;1.05;0.73;;;17.20;99.90;;;;;;6190349;23;20017;-69
2023/09/22 11:30:53;;;;;;;1.80;0.70;;;17.10;99.90;;;;;;6193071;23;20025;-68
2023/09/22 11:33:19;;;;;;;1.98;0.60;;;17.20;99.90;;;;;;6188857;23;20029;-69
2023/09/22 11:35:47;;;;;;;0.70;0.70;;;17.20;99.90;;;;;;6189961;23;20052;-69
2023/09/22 11:38:26;;;;;;;1.45;0.90;;;17.10;99.90;;;;;;6188262;23;20031;-69
2023/09/22 11:41:13;;;;;;;175.48;12.90;;;17.10;99.90;;;;;;6163822;23;20477;-67
2023/09/22 11:43:50;;;;;;;111.85;7.03;;;17.20;99.90;;;;;;6190779;23;20056;-68
2023/09/22 11:46:28;;;;;;;41.58;3.95;;;17.20;99.90;;;;;;6190389;23;20028;-67
2023/09/22 11:49:05;;;;;;;4.00;0.93;;;17.30;99.90;;;;;;6165662;23;20105;-68
2023/09/22 11:51:54;;;;;;;1.38;0.80;;;17.30;99.90;;;;;;6192494;23;20084;-68
2023/09/22 11:54:29;;;;;;;1.70;0.82;;;17.40;99.90;;;;;;6163252;23;20029;-68
2023/09/22 11:56:57;;;;;;;1.17;0.80;;;17.40;99.90;;;;;;6190493;23;20558;-69
2023/09/22 11:59:33;;;;;;;15.70;1.17;;;17.30;99.90;;;;;;6188805;23;20800;-70
2023/09/22 12:02:00;;;;;;;3.17;0.93;;;17.50;99.90;;;;;;6165634;23;20072;-71
2023/09/22 12:04:27;;;;;;;1.38;0.70;;;17.60;99.90;;;;;;6190548;23;20017;-71
2023/09/22 12:06:53;;;;;;;1.60;0.70;;;17.60;99.90;;;;;;6188321;23;20028;-71
2023/09/22 12:09:19;;;;;;;1.65;0.68;;;17.70;99.90;;;;;;6192740;23;20021;-71
2023/09/22 12:11:46;;;;;;;1.77;0.85;;;17.70;99.90;;;;;;6188502;23;20106;-71
2023/09/22 12:14:12;;;;;;;7.30;0.82;;;17.50;99.90;;;;;;6165766;23;20031;-72
2023/09/22 12:16:39;;;;;;;3.30;0.80;;;17.50;99.90;;;;;;6164083;23;20415;-71
2023/09/22 12:19:05;;;;;;;1.48;0.70;;;17.40;99.90;;;;;;6165014;23;20505;-71
2023/09/22 12:21:31;;;;;;;0.93;0.60;;;17.40;99.90;;;;;;6190585;23;20024;-70
2023/09/22 12:23:58;;;;;;;1.70;0.70;;;17.50;99.90;;;;;;6188583;23;20037;-70
2023/09/22 12:26:24;;;;;;;1.67;0.75;;;17.60;99.90;;;;;;6165378;23;20027;-70
2023/09/22 12:28:50;;;;;;;1.90;0.65;;;17.50;99.90;;;;;;6189890;23;20025;-71
2023/09/22 12:31:16;;;;;;;1.48;0.80;;;17.50;99.90;;;;;;6192761;23;20482;-72
2023/09/22 12:33:43;;;;;;;3.50;0.70;;;17.50;99.90;;;;;;6164415;23;20021;-69
2023/09/22 12:36:13;;;;;;;0.75;0.50;;;17.50;99.90;;;;;;6190455;23;20024;-70
2023/09/22 12:38:39;;;;;;;1.48;0.70;;;17.50;99.90;;;;;;6191159;23;20115;-71
2023/09/22 12:41:06;;;;;;;1.65;0.70;;;17.50;99.90;;;;;;6163751;23;20425;-71